Ulan-Ude, Russia
Current Conditions -  °F | °C
As of 2:00 PM on Monday 26 Jan 2015 (Local Time) from UIUU Reporting Station
Broken Clouds Broken Clouds  
Wind Chill: -4°   Ceiling: 10000
Heat Index:   Visibility: 6mi
Dew Point: -4°   Wind: 9mph
Humidity: 57%   Direction: 300°WNW
Pressure: 30.62"   Gusts: NA
Location:  51.83°N, 107.62°E
Report Text: UIUU 260600Z 30004MPS 9999 SCT040 BKN100 M13/M20 Q1037 NOSIGRMK QFE733/0977 26490550
Loading
Personal Weather Stations






























Interactive Weather Map New forecast layout! Learn more

10-Day Weather Forecast

Advertisements
Track Severe Weather on mobile